createdAt,value
2019-04-25T00:00:48.302Z,95.20
2019-04-25T00:03:22.336Z,95.40
2019-04-25T00:05:53.827Z,95.60
2019-04-25T00:08:25.033Z,95.50
2019-04-25T00:10:56.290Z,96.10
2019-04-25T00:13:27.979Z,96.00
2019-04-25T00:15:59.138Z,96.00
2019-04-25T00:18:31.877Z,96.00
2019-04-25T00:21:12.181Z,95.90
2019-04-25T00:23:45.975Z,96.10
2019-04-25T00:26:27.339Z,96.10
2019-04-25T00:28:59.947Z,96.20
2019-04-25T00:31:31.882Z,96.30
2019-04-25T00:34:03.245Z,96.30
2019-04-25T00:36:34.631Z,96.30
2019-04-25T00:39:07.715Z,96.40
2019-04-25T00:41:39.512Z,96.30
2019-04-25T00:44:12.151Z,96.30
2019-04-25T00:46:47.671Z,96.40
2019-04-25T00:49:16.899Z,96.30
2019-04-25T00:51:48.332Z,96.20
2019-04-25T00:54:19.690Z,96.20
2019-04-25T00:56:52.742Z,96.20
2019-04-25T00:59:32.040Z,96.20
2019-04-25T01:02:31.551Z,96.20
2019-04-25T01:05:04.809Z,96.20
2019-04-25T01:07:36.181Z,96.30
2019-04-25T01:10:09.334Z,96.70
2019-04-25T01:12:41.714Z,96.10
2019-04-25T01:15:14.658Z,96.10
2019-04-25T01:17:46.966Z,96.20
2019-04-25T01:20:18.412Z,96.30
2019-04-25T01:22:49.568Z,96.30
2019-04-25T01:25:20.986Z,96.30
2019-04-25T01:27:53.923Z,96.40
2019-04-25T01:30:27.660Z,96.40
2019-04-25T01:32:58.945Z,96.50
2019-04-25T01:35:43.109Z,96.50
2019-04-25T01:38:41.283Z,96.40
2019-04-25T01:41:30.630Z,96.30
2019-04-25T01:44:10.556Z,96.40
2019-04-25T01:46:44.218Z,96.50
2019-04-25T01:49:15.619Z,97.00
2019-04-25T01:51:48.823Z,96.60
2019-04-25T01:54:20.264Z,96.70
2019-04-25T01:56:51.537Z,96.80
2019-04-25T01:59:23.752Z,96.80
2019-04-25T02:01:56.790Z,96.70
2019-04-25T02:04:28.286Z,96.80
2019-04-25T02:06:59.658Z,97.00
2019-04-25T02:09:31.323Z,97.10
2019-04-25T02:12:30.832Z,97.20
2019-04-25T02:15:05.903Z,97.20
2019-04-25T02:17:36.048Z,97.40
2019-04-25T02:20:07.856Z,97.30
2019-04-25T02:22:39.545Z,97.50
2019-04-25T02:25:10.817Z,97.50
2019-04-25T02:27:42.260Z,97.60
2019-04-25T02:30:15.626Z,97.60
2019-04-25T02:32:48.315Z,97.60
2019-04-25T02:35:20.457Z,97.90
2019-04-25T02:37:52.081Z,97.80
2019-04-25T02:40:24.045Z,97.90
2019-04-25T02:42:57.330Z,98.10
2019-04-25T02:45:51.289Z,98.10
2019-04-25T02:48:48.018Z,98.20
2019-04-25T02:51:29.161Z,98.30
2019-04-25T02:54:01.802Z,98.30
2019-04-25T02:56:35.835Z,98.60
2019-04-25T02:59:09.052Z,98.80
2019-04-25T03:01:40.288Z,98.90
2019-04-25T03:04:11.690Z,99.00
2019-04-25T03:06:45.303Z,99.10
2019-04-25T03:09:16.871Z,99.20
2019-04-25T03:11:48.188Z,99.00
2019-04-25T03:14:19.504Z,99.20
2019-04-25T03:16:50.987Z,99.10
2019-04-25T03:19:40.437Z,99.00
2019-04-25T03:22:15.039Z,99.00
2019-04-25T03:24:46.983Z,99.00
2019-04-25T03:27:18.301Z,99.30
2019-04-25T03:29:49.997Z,99.80
2019-04-25T03:32:21.337Z,99.90
2019-04-25T03:34:53.133Z,99.90
2019-04-25T03:37:25.975Z,99.90
2019-04-25T03:39:58.366Z,99.90
2019-04-25T03:42:30.003Z,99.90
2019-04-25T03:45:01.765Z,99.90
2019-04-25T03:47:33.289Z,99.90
2019-04-25T03:50:06.099Z,99.90
2019-04-25T03:52:38.878Z,99.90
2019-04-25T03:55:10.536Z,99.90
2019-04-25T03:57:41.902Z,99.90
2019-04-25T04:00:14.528Z,99.90
2019-04-25T04:02:46.018Z,99.90
2019-04-25T04:05:17.362Z,99.90
2019-04-25T04:07:48.589Z,99.90
2019-04-25T04:10:21.247Z,99.90
2019-04-25T04:12:54.273Z,99.90
2019-04-25T04:15:26.041Z,99.90
2019-04-25T04:18:28.635Z,99.90
2019-04-25T04:21:17.473Z,99.90
2019-04-25T04:23:54.471Z,99.90
2019-04-25T04:26:26.811Z,99.90
2019-04-25T04:28:58.511Z,99.90
2019-04-25T04:31:31.331Z,99.90
2019-04-25T04:34:03.788Z,99.90
2019-04-25T04:36:35.640Z,99.90
2019-04-25T04:39:09.060Z,99.90
2019-04-25T04:41:41.284Z,99.90
2019-04-25T04:44:14.321Z,99.90
2019-04-25T04:46:46.418Z,99.90
2019-04-25T04:49:18.468Z,99.90
2019-04-25T04:51:49.948Z,99.90
2019-04-25T04:54:23.079Z,99.90
2019-04-25T04:56:54.413Z,99.90
2019-04-25T04:59:26.535Z,99.90
2019-04-25T05:02:24.423Z,99.90
2019-04-25T05:05:17.922Z,99.90
2019-04-25T05:07:55.844Z,99.90
2019-04-25T05:10:27.342Z,99.90
2019-04-25T05:12:58.998Z,99.90
2019-04-25T05:15:30.370Z,99.90
2019-04-25T05:18:03.929Z,99.90
2019-04-25T05:20:35.606Z,99.90
2019-04-25T05:23:08.922Z,99.90
2019-04-25T05:25:40.635Z,99.90
2019-04-25T05:28:13.131Z,99.90
2019-04-25T05:30:56.420Z,99.90
2019-04-25T05:33:27.700Z,99.90
2019-04-25T05:36:00.082Z,99.90
2019-04-25T05:38:33.170Z,99.90
2019-04-25T05:41:15.808Z,99.90
2019-04-25T05:43:48.994Z,99.90
2019-04-25T05:46:21.068Z,99.90
2019-04-25T05:48:53.770Z,99.90
2019-04-25T05:51:25.924Z,99.90
2019-04-25T05:53:57.353Z,99.90
2019-04-25T05:56:28.662Z,99.90
2019-04-25T05:59:00.185Z,99.90
2019-04-25T06:01:31.519Z,99.90
2019-04-25T06:04:03.636Z,99.90
2019-04-25T06:06:36.866Z,99.90
2019-04-25T06:09:28.085Z,99.90
2019-04-25T06:12:08.825Z,99.90
2019-04-25T06:14:40.209Z,99.90
2019-04-25T06:17:15.584Z,99.90
2019-04-25T06:19:53.389Z,99.10
2019-04-25T06:22:31.471Z,98.70
2019-04-25T06:25:12.504Z,98.70
2019-04-25T06:27:56.497Z,98.30
2019-04-25T06:30:24.898Z,98.00
2019-04-25T06:32:56.862Z,98.00
2019-04-25T06:35:28.200Z,97.50
2019-04-25T06:37:59.727Z,97.30
2019-04-25T06:40:31.311Z,97.20
2019-04-25T06:43:03.473Z,97.10
2019-04-25T06:45:55.405Z,97.00
2019-04-25T06:48:58.160Z,96.90
2019-04-25T06:51:47.356Z,96.30
2019-04-25T06:54:18.711Z,96.00
2019-04-25T06:56:50.061Z,95.60
2019-04-25T06:59:23.031Z,95.60
2019-04-25T07:01:56.191Z,95.00
2019-04-25T07:04:29.159Z,95.00
2019-04-25T07:07:10.616Z,94.70
2019-04-25T07:09:34.907Z,94.30
2019-04-25T07:12:07.057Z,94.30
2019-04-25T07:14:39.208Z,93.60
2019-04-25T07:17:10.512Z,93.10
2019-04-25T07:19:43.721Z,92.60
2019-04-25T07:22:15.957Z,92.10
2019-04-25T07:24:47.372Z,91.80
2019-04-25T07:27:34.066Z,91.40
2019-04-25T07:30:31.944Z,91.10
2019-04-25T07:33:03.817Z,90.50
2019-04-25T07:35:35.760Z,90.20
2019-04-25T07:38:07.599Z,89.50
2019-04-25T07:40:38.924Z,89.00
2019-04-25T07:43:10.545Z,88.70
2019-04-25T07:45:43.512Z,88.00
2019-04-25T07:48:14.935Z,85.90
2019-04-25T07:50:46.250Z,85.90
2019-04-25T07:53:18.143Z,84.60
2019-04-25T07:55:49.359Z,84.30
2019-04-25T07:58:20.838Z,82.80
2019-04-25T08:00:53.974Z,80.00
2019-04-25T08:03:25.350Z,80.70
2019-04-25T08:05:56.962Z,79.50
2019-04-25T08:08:28.235Z,78.70
2019-04-25T08:11:06.946Z,78.40
2019-04-25T08:13:44.637Z,74.70
2019-04-25T08:16:17.837Z,71.70
2019-04-25T08:18:51.435Z,69.70
2019-04-25T08:21:24.276Z,68.20
2019-04-25T08:23:57.230Z,69.90
2019-04-25T08:26:29.433Z,63.00
2019-04-25T08:29:00.779Z,59.90
2019-04-25T08:31:34.599Z,57.90
2019-04-25T08:34:05.322Z,57.80
2019-04-25T08:36:38.528Z,56.10
2019-04-25T08:39:11.642Z,56.20
2019-04-25T08:41:45.377Z,56.00
2019-04-25T08:44:15.888Z,57.00
2019-04-25T08:46:48.750Z,56.00
2019-04-25T08:49:39.927Z,55.00
2019-04-25T08:52:13.130Z,54.00
2019-04-25T08:55:10.098Z,53.10
2019-04-25T08:58:13.778Z,53.50
2019-04-25T09:01:09.914Z,51.60
2019-04-25T09:03:47.711Z,50.50
2019-04-25T09:06:19.185Z,50.90
2019-04-25T09:08:50.473Z,50.50
2019-04-25T09:11:22.098Z,49.70
2019-04-25T09:13:54.828Z,49.30
2019-04-25T09:16:26.054Z,48.90
2019-04-25T09:18:57.729Z,48.70
2019-04-25T09:21:29.188Z,48.40
2019-04-25T09:24:00.393Z,48.50
2019-04-25T09:26:31.979Z,48.70
2019-04-25T09:29:16.001Z,48.10
2019-04-25T09:31:37.583Z,48.60
2019-04-25T09:34:10.222Z,47.30
2019-04-25T09:36:43.582Z,47.50
2019-04-25T09:39:39.966Z,46.10
2019-04-25T09:42:14.134Z,46.40
2019-04-25T09:45:10.281Z,45.90
2019-04-25T09:47:44.392Z,45.90
2019-04-25T09:50:34.044Z,45.10
2019-04-25T09:53:05.393Z,45.50
2019-04-25T09:55:55.850Z,46.00
2019-04-25T09:58:40.082Z,44.70
2019-04-25T10:01:14.099Z,44.10
2019-04-25T10:03:45.783Z,44.00
2019-04-25T10:06:19.781Z,44.30
2019-04-25T10:08:51.130Z,43.90
2019-04-25T10:11:23.721Z,42.30
2019-04-25T10:14:06.357Z,42.70
2019-04-25T10:16:37.953Z,43.00
2019-04-25T10:19:10.391Z,43.20
2019-04-25T10:21:41.927Z,42.10
2019-04-25T10:24:13.635Z,42.00
2019-04-25T10:26:45.452Z,41.80
2019-04-25T10:29:18.070Z,42.40
2019-04-25T10:31:49.270Z,41.90
2019-04-25T10:34:20.848Z,40.90
2019-04-25T10:36:53.279Z,41.60
2019-04-25T10:39:25.436Z,41.30
2019-04-25T10:41:57.241Z,41.30
2019-04-25T10:44:29.013Z,41.20
2019-04-25T10:47:00.303Z,41.20
2019-04-25T10:49:31.688Z,40.80
2019-04-25T10:52:02.956Z,40.30
2019-04-25T10:54:35.221Z,40.70
2019-04-25T10:57:06.959Z,40.60
2019-04-25T10:59:38.264Z,41.00
2019-04-25T11:02:11.099Z,39.80
2019-04-25T11:04:48.826Z,39.40
2019-04-25T11:07:20.960Z,39.90
2019-04-25T11:09:53.926Z,39.70
2019-04-25T11:12:25.325Z,39.60
2019-04-25T11:14:56.622Z,39.30
2019-04-25T11:17:27.924Z,39.50
2019-04-25T11:19:59.548Z,39.40
2019-04-25T11:22:31.062Z,39.00
2019-04-25T11:25:02.743Z,39.60
2019-04-25T11:27:34.324Z,39.20
2019-04-25T11:30:10.753Z,39.10
2019-04-25T11:32:40.211Z,38.90
2019-04-25T11:35:11.454Z,38.90
2019-04-25T11:37:43.186Z,39.60
2019-04-25T11:40:24.313Z,40.00
2019-04-25T11:42:55.642Z,40.20
2019-04-25T11:45:27.259Z,40.60
2019-04-25T11:47:58.670Z,40.70
2019-04-25T11:50:30.102Z,39.50
2019-04-25T11:53:03.007Z,39.40
2019-04-25T11:55:34.769Z,39.20
2019-04-25T11:58:06.407Z,39.20
2019-04-25T12:00:37.756Z,38.90
2019-04-25T12:03:09.214Z,38.90
2019-04-25T12:05:40.541Z,38.10
2019-04-25T12:08:13.412Z,37.60
2019-04-25T12:10:45.797Z,38.40
2019-04-25T12:13:17.899Z,38.60
2019-04-25T12:15:49.854Z,37.50
2019-04-25T12:18:21.072Z,38.20
2019-04-25T12:20:54.861Z,38.40
2019-04-25T12:23:26.008Z,37.80
2019-04-25T12:25:57.639Z,37.20
2019-04-25T12:28:29.092Z,37.30
2019-04-25T12:31:00.705Z,36.60
2019-04-25T12:33:32.597Z,36.20
2019-04-25T12:36:04.113Z,37.70
2019-04-25T12:38:35.597Z,37.10
2019-04-25T12:41:07.675Z,37.00
2019-04-25T12:43:40.856Z,37.20
2019-04-25T12:46:21.264Z,36.60
2019-04-25T12:48:52.428Z,36.70
2019-04-25T12:51:24.309Z,36.90
2019-04-25T12:53:56.076Z,37.10
2019-04-25T12:56:27.467Z,36.90
2019-04-25T12:58:58.724Z,36.70
2019-04-25T13:01:30.723Z,36.90
2019-04-25T13:04:02.056Z,36.50
2019-04-25T13:06:33.866Z,37.00
2019-04-25T13:09:07.182Z,37.20
2019-04-25T13:11:40.127Z,36.90
2019-04-25T13:14:12.174Z,37.70
2019-04-25T13:16:44.335Z,38.40
2019-04-25T13:19:23.730Z,39.60
2019-04-25T13:21:49.699Z,39.30
2019-04-25T13:24:21.621Z,39.00
2019-04-25T13:27:06.122Z,38.50
2019-04-25T13:29:48.274Z,39.00
2019-04-25T13:32:31.135Z,38.60
2019-04-25T13:35:04.978Z,38.30
2019-04-25T13:37:36.319Z,38.30
2019-04-25T13:40:07.878Z,38.20
2019-04-25T13:42:39.387Z,38.30
2019-04-25T13:45:10.677Z,38.20
2019-04-25T13:47:41.935Z,38.40
2019-04-25T13:50:14.612Z,39.20
2019-04-25T13:52:45.971Z,39.60
2019-04-25T13:55:17.298Z,38.80
2019-04-25T13:57:48.672Z,38.50
2019-04-25T14:00:23.136Z,39.30
2019-04-25T14:02:55.056Z,39.80
2019-04-25T14:05:26.595Z,40.20
2019-04-25T14:07:58.297Z,40.70
2019-04-25T14:10:30.082Z,40.70
2019-04-25T14:13:03.420Z,40.40
2019-04-25T14:15:37.256Z,40.50
2019-04-25T14:18:24.029Z,40.00
2019-04-25T14:21:04.736Z,39.90
2019-04-25T14:23:35.869Z,40.20
2019-04-25T14:26:07.802Z,39.90
2019-04-25T14:28:39.463Z,40.10
2019-04-25T14:31:13.122Z,40.40
2019-04-25T14:33:46.402Z,40.40
2019-04-25T14:36:17.695Z,40.20
2019-04-25T14:38:48.967Z,41.40
2019-04-25T14:41:22.195Z,41.50
2019-04-25T14:43:53.616Z,41.90
2019-04-25T14:46:26.377Z,41.80
2019-04-25T14:48:58.160Z,41.80
2019-04-25T14:51:29.376Z,41.80
2019-04-25T14:54:03.453Z,42.50
2019-04-25T14:56:47.688Z,41.20
2019-04-25T14:59:21.009Z,41.40
2019-04-25T15:01:52.400Z,41.70
2019-04-25T15:04:24.079Z,42.10
2019-04-25T15:06:55.712Z,42.50
2019-04-25T15:09:26.923Z,42.60
2019-04-25T15:11:58.128Z,42.80
2019-04-25T15:14:33.529Z,42.70
2019-04-25T15:17:08.139Z,43.10
2019-04-25T15:19:41.653Z,43.30
2019-04-25T15:22:18.863Z,43.60
2019-04-25T15:24:50.297Z,44.50
2019-04-25T15:27:25.276Z,43.70
2019-04-25T15:29:57.389Z,44.10
2019-04-25T15:32:32.630Z,43.60
2019-04-25T15:35:04.659Z,43.20
2019-04-25T15:37:55.124Z,42.80
2019-04-25T15:40:34.847Z,42.50
2019-04-25T15:43:26.215Z,42.20
2019-04-25T15:46:10.792Z,42.60
2019-04-25T15:48:42.101Z,42.60
2019-04-25T15:51:13.598Z,42.90
2019-04-25T15:53:45.053Z,43.10
2019-04-25T15:56:16.739Z,43.40
2019-04-25T15:58:48.800Z,43.90
2019-04-25T16:01:20.062Z,43.30
2019-04-25T16:03:52.643Z,43.40
2019-04-25T16:06:24.066Z,43.60
2019-04-25T16:08:55.369Z,43.90
2019-04-25T16:11:26.759Z,43.80
2019-04-25T16:13:58.374Z,44.00
2019-04-25T16:16:31.132Z,44.40
2019-04-25T16:19:02.850Z,44.30
2019-04-25T16:21:35.497Z,44.30
2019-04-25T16:24:08.005Z,44.70
2019-04-25T16:26:39.316Z,45.00
2019-04-25T16:29:11.077Z,45.20
2019-04-25T16:31:42.444Z,45.20
2019-04-25T16:34:13.824Z,45.40
2019-04-25T16:36:45.356Z,45.40
2019-04-25T16:39:21.617Z,45.20
2019-04-25T16:41:52.981Z,45.20
2019-04-25T16:44:24.725Z,45.30
2019-04-25T16:46:55.910Z,45.60
2019-04-25T16:49:27.485Z,45.70
2019-04-25T16:52:00.811Z,45.80
2019-04-25T16:54:32.465Z,45.90
2019-04-25T16:57:04.432Z,46.10
2019-04-25T16:59:35.957Z,46.10
2019-04-25T17:02:07.383Z,46.20
2019-04-25T17:04:40.007Z,46.60
2019-04-25T17:07:11.623Z,46.70
2019-04-25T17:09:42.935Z,46.80
2019-04-25T17:12:15.964Z,46.70
2019-04-25T17:14:58.080Z,46.80
2019-04-25T17:17:41.123Z,46.90
2019-04-25T17:20:22.930Z,47.00
2019-04-25T17:22:54.804Z,47.00
2019-04-25T17:25:26.506Z,47.10
2019-04-25T17:27:58.286Z,47.00
2019-04-25T17:30:31.343Z,47.10
2019-04-25T17:33:18.284Z,47.10
2019-04-25T17:36:07.250Z,47.20
2019-04-25T17:38:42.902Z,47.30
2019-04-25T17:41:14.893Z,47.50
2019-04-25T17:43:46.160Z,47.70
2019-04-25T17:46:19.637Z,47.90
2019-04-25T17:48:50.987Z,48.10
2019-04-25T17:51:24.189Z,48.10
2019-04-25T17:53:56.452Z,48.30
2019-04-25T17:56:29.375Z,48.40
2019-04-25T17:59:00.829Z,48.70
2019-04-25T18:01:32.889Z,48.80
2019-04-25T18:04:07.312Z,49.10
2019-04-25T18:06:39.975Z,49.50
2019-04-25T18:09:11.764Z,49.70
2019-04-25T18:11:45.349Z,50.00
2019-04-25T18:14:17.124Z,50.20
2019-04-25T18:16:50.460Z,50.60
2019-04-25T18:19:38.801Z,50.60
2019-04-25T18:22:26.618Z,50.90
2019-04-25T18:25:20.546Z,51.40
2019-04-25T18:27:59.949Z,51.40
2019-04-25T18:30:31.595Z,51.90
2019-04-25T18:33:10.567Z,51.80
2019-04-25T18:35:43.040Z,51.80
2019-04-25T18:38:34.014Z,51.80
2019-04-25T18:41:33.199Z,51.90
2019-04-25T18:44:05.625Z,52.60
2019-04-25T18:46:42.952Z,52.90
2019-04-25T18:49:14.238Z,53.20
2019-04-25T18:51:56.518Z,53.10
2019-04-25T18:54:37.423Z,53.00
2019-04-25T18:57:13.252Z,53.80
2019-04-25T19:00:14.683Z,54.20
2019-04-25T19:03:05.215Z,54.20
2019-04-25T19:05:55.438Z,54.30
2019-04-25T19:08:26.769Z,54.70
2019-04-25T19:10:58.130Z,54.80
2019-04-25T19:13:29.555Z,54.60
2019-04-25T19:16:06.113Z,54.90
2019-04-25T19:18:37.285Z,54.90
2019-04-25T19:21:08.969Z,55.10
2019-04-25T19:23:40.467Z,55.30
2019-04-25T19:26:12.324Z,56.20
2019-04-25T19:28:44.792Z,56.80
2019-04-25T19:31:16.058Z,57.20
2019-04-25T19:33:47.597Z,57.30
2019-04-25T19:36:19.323Z,57.40
2019-04-25T19:38:50.974Z,57.70
2019-04-25T19:41:28.699Z,58.30
2019-04-25T19:44:17.681Z,58.60
2019-04-25T19:46:51.327Z,58.30
2019-04-25T19:49:23.323Z,58.20
2019-04-25T19:51:55.793Z,58.20
2019-04-25T19:54:27.351Z,57.90
2019-04-25T19:56:58.570Z,58.20
2019-04-25T19:59:29.843Z,58.10
2019-04-25T20:02:06.875Z,58.20
2019-04-25T20:04:46.821Z,59.10
2019-04-25T20:07:27.453Z,59.80
2019-04-25T20:10:23.866Z,60.20
2019-04-25T20:12:55.527Z,62.50
2019-04-25T20:15:26.809Z,64.00
2019-04-25T20:17:58.322Z,65.50
2019-04-25T20:20:29.593Z,66.30
2019-04-25T20:23:00.737Z,66.60
2019-04-25T20:25:32.058Z,66.80
2019-04-25T20:28:03.276Z,66.80
2019-04-25T20:30:35.199Z,67.50
2019-04-25T20:33:06.495Z,70.40
2019-04-25T20:35:38.063Z,70.80
2019-04-25T20:38:09.375Z,69.70
2019-04-25T20:40:41.027Z,70.30
2019-04-25T20:43:14.569Z,69.70
2019-04-25T20:45:46.929Z,71.40
2019-04-25T20:48:19.141Z,71.80
2019-04-25T20:50:50.410Z,72.60
2019-04-25T20:53:22.412Z,73.70
2019-04-25T20:55:54.953Z,75.10
2019-04-25T20:58:26.643Z,74.50
2019-04-25T21:00:59.882Z,75.10
2019-04-25T21:03:31.153Z,76.30
2019-04-25T21:06:07.998Z,77.90
2019-04-25T21:08:39.294Z,78.10
2019-04-25T21:11:10.540Z,78.50
2019-04-25T21:14:00.039Z,78.90
2019-04-25T21:16:50.544Z,78.90
2019-04-25T21:19:30.877Z,80.20
2019-04-25T21:22:02.208Z,81.30
2019-04-25T21:24:33.492Z,81.60
2019-04-25T21:27:05.105Z,81.90
2019-04-25T21:29:36.468Z,82.00
2019-04-25T21:32:08.031Z,82.20
2019-04-25T21:34:39.319Z,82.80
2019-04-25T21:37:11.231Z,82.80
2019-04-25T21:39:55.096Z,83.50
2019-04-25T21:42:48.909Z,84.10
2019-04-25T21:45:20.497Z,84.50
2019-04-25T21:47:52.368Z,86.00
2019-04-25T21:50:25.556Z,86.60
2019-04-25T21:52:56.938Z,87.10
2019-04-25T21:55:28.642Z,88.60
2019-04-25T21:58:00.085Z,87.90
2019-04-25T22:00:50.308Z,88.40
2019-04-25T22:03:23.993Z,89.30
2019-04-25T22:05:56.870Z,90.00
2019-04-25T22:08:28.239Z,90.40
2019-04-25T22:11:01.206Z,90.50
2019-04-25T22:13:32.717Z,90.60
2019-04-25T22:16:04.437Z,91.10
2019-04-25T22:18:36.178Z,91.30
2019-04-25T22:21:07.653Z,91.50
2019-04-25T22:23:39.212Z,91.90
2019-04-25T22:26:10.654Z,92.10
2019-04-25T22:28:42.241Z,92.50
2019-04-25T22:31:18.419Z,92.60
2019-04-25T22:33:59.830Z,92.90
2019-04-25T22:36:32.317Z,93.10
2019-04-25T22:39:13.078Z,93.40
2019-04-25T22:41:48.374Z,93.70
2019-04-25T22:44:21.349Z,94.00
2019-04-25T22:46:52.922Z,93.70
2019-04-25T22:49:24.150Z,93.60
2019-04-25T22:51:55.685Z,94.10
2019-04-25T22:54:28.883Z,94.00
2019-04-25T22:57:00.356Z,94.40
2019-04-25T22:59:33.178Z,94.60
2019-04-25T23:02:32.304Z,94.60
2019-04-25T23:05:34.847Z,95.10
2019-04-25T23:08:06.495Z,95.40
2019-04-25T23:10:38.577Z,95.60
2019-04-25T23:13:10.884Z,95.80
2019-04-25T23:15:42.327Z,95.80
2019-04-25T23:18:13.684Z,95.60
2019-04-25T23:20:46.318Z,95.40
2019-04-25T23:23:17.856Z,95.60
2019-04-25T23:26:00.960Z,95.40
2019-04-25T23:28:36.449Z,95.30
2019-04-25T23:31:12.596Z,95.30
2019-04-25T23:33:44.330Z,95.30
2019-04-25T23:36:15.986Z,95.20
2019-04-25T23:38:47.873Z,95.20
2019-04-25T23:41:19.451Z,95.30
2019-04-25T23:43:51.055Z,95.10
2019-04-25T23:46:22.200Z,95.20
2019-04-25T23:48:54.143Z,95.10
2019-04-25T23:51:25.733Z,95.10
2019-04-25T23:53:57.839Z,95.10
2019-04-25T23:56:29.275Z,95.20
2019-04-25T23:59:01.430Z,95.20
